sensor_id;sensor_type;location;lat;lon;timestamp;P1;durP1;ratioP1;P2;durP2;ratioP2
10882;SDS011;5494;51.796;10.952;2023-04-25T00:00:45;5.00;;;2.70;;
10882;SDS011;5494;51.796;10.952;2023-04-25T00:03:13;5.40;;;2.43;;
10882;SDS011;5494;51.796;10.952;2023-04-25T00:05:41;6.37;;;2.63;;
10882;SDS011;5494;51.796;10.952;2023-04-25T00:08:10;4.73;;;3.07;;
10882;SDS011;5494;51.796;10.952;2023-04-25T00:10:38;4.10;;;3.40;;
10882;SDS011;5494;51.796;10.952;2023-04-25T00:13:06;7.03;;;3.30;;
10882;SDS011;5494;51.796;10.952;2023-04-25T00:15:35;5.50;;;3.43;;
10882;SDS011;5494;51.796;10.952;2023-04-25T00:18:04;7.93;;;3.37;;
10882;SDS011;5494;51.796;10.952;2023-04-25T00:20:33;5.17;;;3.33;;
10882;SDS011;5494;51.796;10.952;2023-04-25T00:23:02;4.37;;;2.97;;
10882;SDS011;5494;51.796;10.952;2023-04-25T00:25:30;4.30;;;3.07;;
10882;SDS011;5494;51.796;10.952;2023-04-25T00:27:58;7.07;;;3.40;;
10882;SDS011;5494;51.796;10.952;2023-04-25T00:30:26;5.57;;;3.10;;
10882;SDS011;5494;51.796;10.952;2023-04-25T00:55:25;5.23;;;3.20;;
10882;SDS011;5494;51.796;10.952;2023-04-25T00:58:14;6.43;;;3.17;;
10882;SDS011;5494;51.796;10.952;2023-04-25T01:01:02;4.27;;;2.83;;
10882;SDS011;5494;51.796;10.952;2023-04-25T01:03:50;5.37;;;2.90;;
10882;SDS011;5494;51.796;10.952;2023-04-25T01:06:42;6.90;;;3.10;;
10882;SDS011;5494;51.796;10.952;2023-04-25T01:09:30;6.33;;;3.03;;
10882;SDS011;5494;51.796;10.952;2023-04-25T01:12:20;6.33;;;3.00;;
10882;SDS011;5494;51.796;10.952;2023-04-25T01:15:09;6.03;;;2.90;;
10882;SDS011;5494;51.796;10.952;2023-04-25T01:17:58;8.33;;;2.90;;
10882;SDS011;5494;51.796;10.952;2023-04-25T01:20:47;7.40;;;3.50;;
10882;SDS011;5494;51.796;10.952;2023-04-25T01:23:41;5.47;;;3.00;;
10882;SDS011;5494;51.796;10.952;2023-04-25T01:26:30;6.90;;;2.90;;
10882;SDS011;5494;51.796;10.952;2023-04-25T01:29:19;7.57;;;2.90;;
10882;SDS011;5494;51.796;10.952;2023-04-25T01:32:08;5.63;;;3.23;;
10882;SDS011;5494;51.796;10.952;2023-04-25T01:34:58;3.10;;;2.57;;
10882;SDS011;5494;51.796;10.952;2023-04-25T01:37:46;4.73;;;3.40;;
10882;SDS011;5494;51.796;10.952;2023-04-25T01:40:38;7.87;;;3.03;;
10882;SDS011;5494;51.796;10.952;2023-04-25T01:43:28;4.57;;;2.93;;
10882;SDS011;5494;51.796;10.952;2023-04-25T01:46:16;3.83;;;2.83;;
10882;SDS011;5494;51.796;10.952;2023-04-25T01:49:05;4.60;;;2.87;;
10882;SDS011;5494;51.796;10.952;2023-04-25T01:51:54;7.70;;;2.90;;
10882;SDS011;5494;51.796;10.952;2023-04-25T01:54:42;6.97;;;3.33;;
10882;SDS011;5494;51.796;10.952;2023-04-25T01:57:34;7.30;;;3.60;;
10882;SDS011;5494;51.796;10.952;2023-04-25T02:00:22;7.03;;;3.30;;
10882;SDS011;5494;51.796;10.952;2023-04-25T02:03:11;3.13;;;2.60;;
10882;SDS011;5494;51.796;10.952;2023-04-25T02:05:59;5.30;;;3.23;;
10882;SDS011;5494;51.796;10.952;2023-04-25T02:08:50;5.87;;;2.87;;
10882;SDS011;5494;51.796;10.952;2023-04-25T02:11:38;4.00;;;2.57;;
10882;SDS011;5494;51.796;10.952;2023-04-25T02:14:47;8.00;;;3.10;;
10882;SDS011;5494;51.796;10.952;2023-04-25T02:17:43;6.37;;;3.53;;
10882;SDS011;5494;51.796;10.952;2023-04-25T02:20:32;8.40;;;3.40;;
10882;SDS011;5494;51.796;10.952;2023-04-25T02:23:21;5.17;;;3.10;;
10882;SDS011;5494;51.796;10.952;2023-04-25T02:26:09;8.93;;;4.00;;
10882;SDS011;5494;51.796;10.952;2023-04-25T02:29:00;6.67;;;3.40;;
10882;SDS011;5494;51.796;10.952;2023-04-25T02:31:50;5.57;;;3.33;;
10882;SDS011;5494;51.796;10.952;2023-04-25T02:34:38;5.30;;;3.30;;
10882;SDS011;5494;51.796;10.952;2023-04-25T02:37:26;5.57;;;3.80;;
10882;SDS011;5494;51.796;10.952;2023-04-25T02:40:15;3.57;;;3.23;;
10882;SDS011;5494;51.796;10.952;2023-04-25T02:43:03;8.40;;;4.07;;
10882;SDS011;5494;51.796;10.952;2023-04-25T02:45:51;6.83;;;3.33;;
10882;SDS011;5494;51.796;10.952;2023-04-25T02:48:41;5.77;;;3.33;;
10882;SDS011;5494;51.796;10.952;2023-04-25T02:51:30;5.80;;;3.37;;
10882;SDS011;5494;51.796;10.952;2023-04-25T02:54:19;6.33;;;3.63;;
10882;SDS011;5494;51.796;10.952;2023-04-25T02:57:08;8.60;;;4.60;;
10882;SDS011;5494;51.796;10.952;2023-04-25T02:59:57;9.37;;;3.60;;
10882;SDS011;5494;51.796;10.952;2023-04-25T03:02:45;6.30;;;3.30;;
10882;SDS011;5494;51.796;10.952;2023-04-25T03:05:35;4.97;;;3.40;;
10882;SDS011;5494;51.796;10.952;2023-04-25T03:08:24;7.17;;;3.27;;
10882;SDS011;5494;51.796;10.952;2023-04-25T03:11:16;6.70;;;3.87;;
10882;SDS011;5494;51.796;10.952;2023-04-25T03:14:04;7.00;;;3.50;;
10882;SDS011;5494;51.796;10.952;2023-04-25T03:16:53;5.77;;;3.57;;
10882;SDS011;5494;51.796;10.952;2023-04-25T03:19:41;6.10;;;3.40;;
10882;SDS011;5494;51.796;10.952;2023-04-25T03:22:31;10.00;;;3.60;;
10882;SDS011;5494;51.796;10.952;2023-04-25T03:25:19;9.13;;;4.90;;
10882;SDS011;5494;51.796;10.952;2023-04-25T03:28:07;7.23;;;3.00;;
10882;SDS011;5494;51.796;10.952;2023-04-25T03:30:56;7.93;;;3.23;;
10882;SDS011;5494;51.796;10.952;2023-04-25T03:33:44;5.53;;;3.50;;
10882;SDS011;5494;51.796;10.952;2023-04-25T03:36:33;5.57;;;3.20;;
10882;SDS011;5494;51.796;10.952;2023-04-25T03:39:23;9.60;;;3.80;;
10882;SDS011;5494;51.796;10.952;2023-04-25T03:42:12;10.23;;;3.70;;
10882;SDS011;5494;51.796;10.952;2023-04-25T03:45:03;6.87;;;3.97;;
10882;SDS011;5494;51.796;10.952;2023-04-25T03:47:53;5.80;;;3.13;;
10882;SDS011;5494;51.796;10.952;2023-04-25T03:50:42;8.90;;;4.63;;
10882;SDS011;5494;51.796;10.952;2023-04-25T03:53:30;9.50;;;3.67;;
10882;SDS011;5494;51.796;10.952;2023-04-25T03:56:55;7.90;;;3.33;;
10882;SDS011;5494;51.796;10.952;2023-04-25T03:59:46;6.50;;;3.10;;
10882;SDS011;5494;51.796;10.952;2023-04-25T04:02:35;5.90;;;3.73;;
10882;SDS011;5494;51.796;10.952;2023-04-25T04:05:24;5.90;;;3.07;;
10882;SDS011;5494;51.796;10.952;2023-04-25T04:08:15;4.77;;;3.20;;
10882;SDS011;5494;51.796;10.952;2023-04-25T04:11:03;4.80;;;3.10;;
10882;SDS011;5494;51.796;10.952;2023-04-25T04:13:53;5.37;;;3.37;;
10882;SDS011;5494;51.796;10.952;2023-04-25T04:16:42;4.93;;;3.13;;
10882;SDS011;5494;51.796;10.952;2023-04-25T04:19:30;6.43;;;3.40;;
10882;SDS011;5494;51.796;10.952;2023-04-25T04:22:25;4.77;;;3.23;;
10882;SDS011;5494;51.796;10.952;2023-04-25T04:25:17;4.57;;;3.47;;
10882;SDS011;5494;51.796;10.952;2023-04-25T04:28:32;4.73;;;3.03;;
10882;SDS011;5494;51.796;10.952;2023-04-25T04:31:26;5.60;;;2.87;;
10882;SDS011;5494;51.796;10.952;2023-04-25T04:34:16;3.60;;;2.70;;
10882;SDS011;5494;51.796;10.952;2023-04-25T04:37:05;6.03;;;3.10;;
10882;SDS011;5494;51.796;10.952;2023-04-25T04:39:55;4.67;;;3.00;;
10882;SDS011;5494;51.796;10.952;2023-04-25T04:42:58;6.13;;;3.33;;
10882;SDS011;5494;51.796;10.952;2023-04-25T04:46:08;6.47;;;3.20;;
10882;SDS011;5494;51.796;10.952;2023-04-25T04:49:32;6.60;;;3.23;;
10882;SDS011;5494;51.796;10.952;2023-04-25T04:52:39;5.83;;;2.70;;
10882;SDS011;5494;51.796;10.952;2023-04-25T04:55:52;3.80;;;2.90;;
10882;SDS011;5494;51.796;10.952;2023-04-25T04:58:59;6.37;;;2.83;;
10882;SDS011;5494;51.796;10.952;2023-04-25T05:02:08;2.50;;;1.87;;
10882;SDS011;5494;51.796;10.952;2023-04-25T05:05:08;1.67;;;1.37;;
10882;SDS011;5494;51.796;10.952;2023-04-25T05:08:18;1.90;;;1.23;;
10882;SDS011;5494;51.796;10.952;2023-04-25T05:11:24;1.20;;;1.10;;
10882;SDS011;5494;51.796;10.952;2023-04-25T05:14:30;2.10;;;1.20;;
10882;SDS011;5494;51.796;10.952;2023-04-25T05:17:32;2.70;;;1.50;;
10882;SDS011;5494;51.796;10.952;2023-04-25T05:20:45;1.60;;;1.50;;
10882;SDS011;5494;51.796;10.952;2023-04-25T05:23:52;4.50;;;2.13;;
10882;SDS011;5494;51.796;10.952;2023-04-25T05:26:59;3.60;;;2.40;;
10882;SDS011;5494;51.796;10.952;2023-04-25T05:30:09;4.60;;;2.77;;
10882;SDS011;5494;51.796;10.952;2023-04-25T05:33:23;7.83;;;2.90;;
10882;SDS011;5494;51.796;10.952;2023-04-25T05:36:12;5.13;;;2.70;;
10882;SDS011;5494;51.796;10.952;2023-04-25T05:39:01;4.00;;;2.60;;
10882;SDS011;5494;51.796;10.952;2023-04-25T05:42:10;6.30;;;3.00;;
10882;SDS011;5494;51.796;10.952;2023-04-25T05:45:20;6.73;;;2.77;;
10882;SDS011;5494;51.796;10.952;2023-04-25T05:48:26;8.70;;;3.00;;
10882;SDS011;5494;51.796;10.952;2023-04-25T05:50:59;11.17;;;3.80;;
10882;SDS011;5494;51.796;10.952;2023-04-25T05:53:47;8.40;;;4.03;;
10882;SDS011;5494;51.796;10.952;2023-04-25T05:56:16;13.07;;;4.17;;
10882;SDS011;5494;51.796;10.952;2023-04-25T05:58:46;12.87;;;5.03;;
10882;SDS011;5494;51.796;10.952;2023-04-25T06:01:15;11.93;;;4.07;;
10882;SDS011;5494;51.796;10.952;2023-04-25T06:03:43;12.10;;;4.43;;
10882;SDS011;5494;51.796;10.952;2023-04-25T06:06:11;15.50;;;5.43;;
10882;SDS011;5494;51.796;10.952;2023-04-25T06:08:39;10.80;;;5.37;;
10882;SDS011;5494;51.796;10.952;2023-04-25T06:11:11;12.00;;;4.90;;
10882;SDS011;5494;51.796;10.952;2023-04-25T06:13:40;11.33;;;4.40;;
10882;SDS011;5494;51.796;10.952;2023-04-25T06:16:08;13.80;;;4.27;;
10882;SDS011;5494;51.796;10.952;2023-04-25T06:18:36;9.53;;;3.90;;
10882;SDS011;5494;51.796;10.952;2023-04-25T06:21:04;8.30;;;3.97;;
10882;SDS011;5494;51.796;10.952;2023-04-25T06:23:33;12.17;;;4.43;;
10882;SDS011;5494;51.796;10.952;2023-04-25T06:26:03;9.77;;;3.87;;
10882;SDS011;5494;51.796;10.952;2023-04-25T06:28:34;10.93;;;3.87;;
10882;SDS011;5494;51.796;10.952;2023-04-25T06:31:03;12.03;;;4.23;;
10882;SDS011;5494;51.796;10.952;2023-04-25T06:33:31;9.50;;;4.00;;
10882;SDS011;5494;51.796;10.952;2023-04-25T06:35:59;9.77;;;4.20;;
10882;SDS011;5494;51.796;10.952;2023-04-25T06:38:27;13.20;;;3.80;;
10882;SDS011;5494;51.796;10.952;2023-04-25T06:40:56;10.23;;;3.97;;
10882;SDS011;5494;51.796;10.952;2023-04-25T06:43:28;9.60;;;4.20;;
10882;SDS011;5494;51.796;10.952;2023-04-25T06:46:09;10.00;;;3.93;;
10882;SDS011;5494;51.796;10.952;2023-04-25T06:48:42;11.20;;;3.60;;
10882;SDS011;5494;51.796;10.952;2023-04-25T06:51:11;15.60;;;4.07;;
10882;SDS011;5494;51.796;10.952;2023-04-25T06:53:43;6.53;;;3.07;;
10882;SDS011;5494;51.796;10.952;2023-04-25T06:56:22;13.37;;;3.73;;
10882;SDS011;5494;51.796;10.952;2023-04-25T06:59:00;14.27;;;3.67;;
10882;SDS011;5494;51.796;10.952;2023-04-25T07:01:32;11.67;;;3.50;;
10882;SDS011;5494;51.796;10.952;2023-04-25T07:04:03;13.53;;;3.50;;
10882;SDS011;5494;51.796;10.952;2023-04-25T07:06:35;6.60;;;3.27;;
10882;SDS011;5494;51.796;10.952;2023-04-25T07:09:04;12.37;;;3.37;;
10882;SDS011;5494;51.796;10.952;2023-04-25T07:11:32;9.30;;;3.20;;
10882;SDS011;5494;51.796;10.952;2023-04-25T07:14:00;9.33;;;3.10;;
10882;SDS011;5494;51.796;10.952;2023-04-25T07:16:28;11.00;;;3.37;;
10882;SDS011;5494;51.796;10.952;2023-04-25T07:18:59;10.47;;;3.33;;
10882;SDS011;5494;51.796;10.952;2023-04-25T07:21:27;10.03;;;3.07;;
10882;SDS011;5494;51.796;10.952;2023-04-25T07:24:00;7.40;;;2.97;;
10882;SDS011;5494;51.796;10.952;2023-04-25T07:26:32;11.63;;;2.70;;
10882;SDS011;5494;51.796;10.952;2023-04-25T07:29:19;5.17;;;2.53;;
10882;SDS011;5494;51.796;10.952;2023-04-25T07:31:47;9.77;;;3.40;;
10882;SDS011;5494;51.796;10.952;2023-04-25T07:34:16;8.13;;;2.93;;
10882;SDS011;5494;51.796;10.952;2023-04-25T07:36:44;11.10;;;3.47;;
10882;SDS011;5494;51.796;10.952;2023-04-25T07:39:12;9.13;;;2.87;;
10882;SDS011;5494;51.796;10.952;2023-04-25T07:41:41;10.97;;;2.83;;
10882;SDS011;5494;51.796;10.952;2023-04-25T07:44:14;10.80;;;3.50;;
10882;SDS011;5494;51.796;10.952;2023-04-25T07:46:42;10.43;;;3.30;;
10882;SDS011;5494;51.796;10.952;2023-04-25T07:49:10;12.20;;;3.20;;
10882;SDS011;5494;51.796;10.952;2023-04-25T07:51:43;9.47;;;3.87;;
10882;SDS011;5494;51.796;10.952;2023-04-25T07:54:15;11.00;;;3.40;;
10882;SDS011;5494;51.796;10.952;2023-04-25T07:56:48;9.43;;;3.20;;
10882;SDS011;5494;51.796;10.952;2023-04-25T07:59:22;8.67;;;2.80;;
10882;SDS011;5494;51.796;10.952;2023-04-25T08:01:50;7.53;;;3.40;;
10882;SDS011;5494;51.796;10.952;2023-04-25T08:04:19;12.77;;;3.20;;
10882;SDS011;5494;51.796;10.952;2023-04-25T08:06:59;10.63;;;3.23;;
10882;SDS011;5494;51.796;10.952;2023-04-25T08:09:31;12.00;;;3.43;;
10882;SDS011;5494;51.796;10.952;2023-04-25T08:12:03;9.17;;;2.80;;
10882;SDS011;5494;51.796;10.952;2023-04-25T08:14:32;12.33;;;3.13;;
10882;SDS011;5494;51.796;10.952;2023-04-25T08:17:04;11.77;;;2.83;;
10882;SDS011;5494;51.796;10.952;2023-04-25T08:19:38;9.23;;;2.93;;
10882;SDS011;5494;51.796;10.952;2023-04-25T08:22:12;12.93;;;3.43;;
10882;SDS011;5494;51.796;10.952;2023-04-25T08:24:49;6.47;;;2.60;;
10882;SDS011;5494;51.796;10.952;2023-04-25T08:27:17;10.40;;;2.77;;
10882;SDS011;5494;51.796;10.952;2023-04-25T08:29:47;9.40;;;2.80;;
10882;SDS011;5494;51.796;10.952;2023-04-25T08:32:15;6.40;;;2.63;;
10882;SDS011;5494;51.796;10.952;2023-04-25T08:34:57;8.40;;;2.30;;
10882;SDS011;5494;51.796;10.952;2023-04-25T08:37:27;9.03;;;2.80;;
10882;SDS011;5494;51.796;10.952;2023-04-25T08:40:00;8.43;;;3.13;;
10882;SDS011;5494;51.796;10.952;2023-04-25T08:42:49;6.07;;;3.03;;
10882;SDS011;5494;51.796;10.952;2023-04-25T08:45:20;8.00;;;2.77;;
10882;SDS011;5494;51.796;10.952;2023-04-25T08:47:49;10.47;;;2.97;;
10882;SDS011;5494;51.796;10.952;2023-04-25T08:50:20;5.70;;;2.43;;
10882;SDS011;5494;51.796;10.952;2023-04-25T08:52:54;11.33;;;2.50;;
10882;SDS011;5494;51.796;10.952;2023-04-25T08:55:27;12.93;;;2.80;;
10882;SDS011;5494;51.796;10.952;2023-04-25T08:57:58;8.67;;;2.20;;
10882;SDS011;5494;51.796;10.952;2023-04-25T09:00:28;4.03;;;2.20;;
10882;SDS011;5494;51.796;10.952;2023-04-25T09:02:56;6.27;;;2.50;;
10882;SDS011;5494;51.796;10.952;2023-04-25T09:05:29;8.60;;;2.40;;
10882;SDS011;5494;51.796;10.952;2023-04-25T09:08:01;9.97;;;2.50;;
10882;SDS011;5494;51.796;10.952;2023-04-25T09:10:29;8.63;;;2.63;;
10882;SDS011;5494;51.796;10.952;2023-04-25T09:13:03;9.33;;;2.97;;
10882;SDS011;5494;51.796;10.952;2023-04-25T09:15:48;10.17;;;2.57;;
10882;SDS011;5494;51.796;10.952;2023-04-25T09:18:31;9.40;;;2.67;;
10882;SDS011;5494;51.796;10.952;2023-04-25T09:21:04;8.07;;;2.80;;
10882;SDS011;5494;51.796;10.952;2023-04-25T09:23:43;8.03;;;2.27;;
10882;SDS011;5494;51.796;10.952;2023-04-25T09:26:17;7.70;;;2.40;;
10882;SDS011;5494;51.796;10.952;2023-04-25T09:28:48;11.23;;;3.00;;
10882;SDS011;5494;51.796;10.952;2023-04-25T09:31:23;7.03;;;2.40;;
10882;SDS011;5494;51.796;10.952;2023-04-25T09:33:58;6.20;;;2.50;;
10882;SDS011;5494;51.796;10.952;2023-04-25T09:36:37;6.03;;;1.93;;
10882;SDS011;5494;51.796;10.952;2023-04-25T09:39:29;6.67;;;2.40;;
10882;SDS011;5494;51.796;10.952;2023-04-25T09:42:09;4.57;;;2.30;;
10882;SDS011;5494;51.796;10.952;2023-04-25T09:44:37;6.10;;;2.00;;
10882;SDS011;5494;51.796;10.952;2023-04-25T09:47:12;5.97;;;2.33;;
10882;SDS011;5494;51.796;10.952;2023-04-25T09:49:43;10.30;;;2.50;;
10882;SDS011;5494;51.796;10.952;2023-04-25T09:52:16;8.27;;;3.57;;
10882;SDS011;5494;51.796;10.952;2023-04-25T09:55:05;6.50;;;2.23;;
10882;SDS011;5494;51.796;10.952;2023-04-25T09:57:34;5.70;;;2.37;;
10882;SDS011;5494;51.796;10.952;2023-04-25T10:00:06;5.97;;;1.93;;
10882;SDS011;5494;51.796;10.952;2023-04-25T10:02:42;6.37;;;2.00;;
10882;SDS011;5494;51.796;10.952;2023-04-25T10:05:37;4.23;;;1.60;;
10882;SDS011;5494;51.796;10.952;2023-04-25T10:08:06;6.27;;;1.90;;
10882;SDS011;5494;51.796;10.952;2023-04-25T10:10:36;6.27;;;1.97;;
10882;SDS011;5494;51.796;10.952;2023-04-25T10:13:07;7.27;;;2.33;;
10882;SDS011;5494;51.796;10.952;2023-04-25T10:15:35;8.10;;;2.37;;
10882;SDS011;5494;51.796;10.952;2023-04-25T10:18:06;5.17;;;2.10;;
10882;SDS011;5494;51.796;10.952;2023-04-25T10:20:34;7.07;;;2.27;;
10882;SDS011;5494;51.796;10.952;2023-04-25T10:23:03;4.23;;;1.80;;
10882;SDS011;5494;51.796;10.952;2023-04-25T10:25:42;6.10;;;2.20;;
10882;SDS011;5494;51.796;10.952;2023-04-25T10:28:11;4.60;;;1.60;;
10882;SDS011;5494;51.796;10.952;2023-04-25T10:30:43;5.37;;;2.37;;
10882;SDS011;5494;51.796;10.952;2023-04-25T10:33:35;5.90;;;2.10;;
10882;SDS011;5494;51.796;10.952;2023-04-25T10:36:11;6.70;;;2.47;;
10882;SDS011;5494;51.796;10.952;2023-04-25T10:38:41;5.03;;;1.97;;
10882;SDS011;5494;51.796;10.952;2023-04-25T10:41:13;6.50;;;1.50;;
10882;SDS011;5494;51.796;10.952;2023-04-25T10:43:42;5.10;;;1.70;;
10882;SDS011;5494;51.796;10.952;2023-04-25T10:46:15;5.30;;;1.63;;
10882;SDS011;5494;51.796;10.952;2023-04-25T10:48:45;6.00;;;2.57;;
10882;SDS011;5494;51.796;10.952;2023-04-25T10:51:17;4.57;;;1.30;;
10882;SDS011;5494;51.796;10.952;2023-04-25T10:53:58;3.57;;;1.70;;
10882;SDS011;5494;51.796;10.952;2023-04-25T10:56:30;4.03;;;1.33;;
10882;SDS011;5494;51.796;10.952;2023-04-25T10:59:06;3.40;;;1.50;;
10882;SDS011;5494;51.796;10.952;2023-04-25T11:01:37;5.73;;;1.50;;
10882;SDS011;5494;51.796;10.952;2023-04-25T11:04:18;6.43;;;1.73;;
10882;SDS011;5494;51.796;10.952;2023-04-25T11:07:00;5.97;;;1.97;;
10882;SDS011;5494;51.796;10.952;2023-04-25T11:09:40;3.90;;;1.63;;
10882;SDS011;5494;51.796;10.952;2023-04-25T11:12:10;3.73;;;1.90;;
10882;SDS011;5494;51.796;10.952;2023-04-25T11:14:39;4.67;;;1.87;;
10882;SDS011;5494;51.796;10.952;2023-04-25T11:17:07;4.30;;;2.10;;
10882;SDS011;5494;51.796;10.952;2023-04-25T11:19:36;3.30;;;1.77;;
10882;SDS011;5494;51.796;10.952;2023-04-25T11:22:04;5.37;;;2.10;;
10882;SDS011;5494;51.796;10.952;2023-04-25T11:24:34;2.97;;;1.80;;
10882;SDS011;5494;51.796;10.952;2023-04-25T11:27:03;6.07;;;1.70;;
10882;SDS011;5494;51.796;10.952;2023-04-25T11:29:34;5.27;;;1.80;;
10882;SDS011;5494;51.796;10.952;2023-04-25T11:32:02;3.77;;;1.87;;
10882;SDS011;5494;51.796;10.952;2023-04-25T11:34:31;5.13;;;2.17;;
10882;SDS011;5494;51.796;10.952;2023-04-25T11:37:01;5.50;;;2.60;;
10882;SDS011;5494;51.796;10.952;2023-04-25T11:39:30;5.73;;;2.10;;
10882;SDS011;5494;51.796;10.952;2023-04-25T11:41:58;5.30;;;1.80;;
10882;SDS011;5494;51.796;10.952;2023-04-25T11:44:28;5.17;;;1.70;;
10882;SDS011;5494;51.796;10.952;2023-04-25T11:46:58;5.40;;;1.43;;
10882;SDS011;5494;51.796;10.952;2023-04-25T11:49:29;4.87;;;1.80;;
10882;SDS011;5494;51.796;10.952;2023-04-25T11:51:58;6.27;;;1.80;;
10882;SDS011;5494;51.796;10.952;2023-04-25T11:54:26;4.70;;;1.53;;
10882;SDS011;5494;51.796;10.952;2023-04-25T11:56:54;3.60;;;1.60;;
10882;SDS011;5494;51.796;10.952;2023-04-25T11:59:23;4.83;;;1.70;;
10882;SDS011;5494;51.796;10.952;2023-04-25T12:01:52;5.33;;;1.60;;
10882;SDS011;5494;51.796;10.952;2023-04-25T12:04:23;4.27;;;2.27;;
10882;SDS011;5494;51.796;10.952;2023-04-25T12:06:53;4.27;;;1.77;;
10882;SDS011;5494;51.796;10.952;2023-04-25T12:09:27;4.03;;;1.77;;
10882;SDS011;5494;51.796;10.952;2023-04-25T12:11:58;3.37;;;1.60;;
10882;SDS011;5494;51.796;10.952;2023-04-25T12:14:30;4.60;;;1.40;;
10882;SDS011;5494;51.796;10.952;2023-04-25T12:17:00;4.47;;;1.30;;
10882;SDS011;5494;51.796;10.952;2023-04-25T12:19:35;4.53;;;1.67;;
10882;SDS011;5494;51.796;10.952;2023-04-25T12:22:18;3.97;;;1.83;;
10882;SDS011;5494;51.796;10.952;2023-04-25T12:24:48;5.20;;;1.50;;
10882;SDS011;5494;51.796;10.952;2023-04-25T12:27:16;3.83;;;1.50;;
10882;SDS011;5494;51.796;10.952;2023-04-25T12:29:50;2.93;;;1.63;;
10882;SDS011;5494;51.796;10.952;2023-04-25T12:32:20;6.30;;;1.60;;
10882;SDS011;5494;51.796;10.952;2023-04-25T12:34:49;5.47;;;1.90;;
10882;SDS011;5494;51.796;10.952;2023-04-25T12:37:17;2.77;;;1.40;;
10882;SDS011;5494;51.796;10.952;2023-04-25T12:39:45;3.67;;;2.00;;
10882;SDS011;5494;51.796;10.952;2023-04-25T12:42:13;5.40;;;1.80;;
10882;SDS011;5494;51.796;10.952;2023-04-25T12:44:41;3.30;;;1.30;;
10882;SDS011;5494;51.796;10.952;2023-04-25T12:47:09;2.13;;;1.33;;
10882;SDS011;5494;51.796;10.952;2023-04-25T12:49:37;3.23;;;1.33;;
10882;SDS011;5494;51.796;10.952;2023-04-25T12:52:07;4.27;;;1.57;;
10882;SDS011;5494;51.796;10.952;2023-04-25T12:54:34;3.13;;;1.67;;
10882;SDS011;5494;51.796;10.952;2023-04-25T12:57:02;2.63;;;1.60;;
10882;SDS011;5494;51.796;10.952;2023-04-25T12:59:31;4.67;;;1.83;;
10882;SDS011;5494;51.796;10.952;2023-04-25T13:01:59;2.83;;;1.73;;
10882;SDS011;5494;51.796;10.952;2023-04-25T13:04:27;5.40;;;1.50;;
10882;SDS011;5494;51.796;10.952;2023-04-25T13:06:55;4.40;;;1.80;;
10882;SDS011;5494;51.796;10.952;2023-04-25T13:09:24;3.30;;;1.30;;
10882;SDS011;5494;51.796;10.952;2023-04-25T13:11:52;2.67;;;1.80;;
10882;SDS011;5494;51.796;10.952;2023-04-25T13:14:24;5.13;;;1.70;;
10882;SDS011;5494;51.796;10.952;2023-04-25T13:16:52;5.27;;;1.90;;
10882;SDS011;5494;51.796;10.952;2023-04-25T13:19:20;4.50;;;1.77;;
10882;SDS011;5494;51.796;10.952;2023-04-25T13:21:48;3.97;;;1.50;;
10882;SDS011;5494;51.796;10.952;2023-04-25T13:24:17;6.30;;;1.60;;
10882;SDS011;5494;51.796;10.952;2023-04-25T13:26:46;6.27;;;1.90;;
10882;SDS011;5494;51.796;10.952;2023-04-25T13:29:14;6.67;;;1.80;;
10882;SDS011;5494;51.796;10.952;2023-04-25T13:31:42;5.97;;;1.70;;
10882;SDS011;5494;51.796;10.952;2023-04-25T13:34:10;5.57;;;2.00;;
10882;SDS011;5494;51.796;10.952;2023-04-25T13:36:39;5.90;;;1.77;;
10882;SDS011;5494;51.796;10.952;2023-04-25T13:39:07;6.03;;;1.67;;
10882;SDS011;5494;51.796;10.952;2023-04-25T13:41:35;4.47;;;1.70;;
10882;SDS011;5494;51.796;10.952;2023-04-25T13:44:04;5.07;;;1.80;;
10882;SDS011;5494;51.796;10.952;2023-04-25T13:46:32;5.50;;;2.17;;
10882;SDS011;5494;51.796;10.952;2023-04-25T13:49:12;6.50;;;1.77;;
10882;SDS011;5494;51.796;10.952;2023-04-25T13:51:40;6.47;;;1.60;;
10882;SDS011;5494;51.796;10.952;2023-04-25T13:54:09;3.83;;;1.60;;
10882;SDS011;5494;51.796;10.952;2023-04-25T13:56:37;8.17;;;2.00;;
10882;SDS011;5494;51.796;10.952;2023-04-25T13:59:09;5.20;;;2.13;;
10882;SDS011;5494;51.796;10.952;2023-04-25T14:01:37;5.17;;;2.00;;
10882;SDS011;5494;51.796;10.952;2023-04-25T14:04:06;3.30;;;1.57;;
10882;SDS011;5494;51.796;10.952;2023-04-25T14:06:34;4.00;;;1.73;;
10882;SDS011;5494;51.796;10.952;2023-04-25T14:09:02;6.90;;;2.33;;
10882;SDS011;5494;51.796;10.952;2023-04-25T14:11:32;6.67;;;2.07;;
10882;SDS011;5494;51.796;10.952;2023-04-25T14:14:00;5.30;;;2.03;;
10882;SDS011;5494;51.796;10.952;2023-04-25T14:16:30;4.80;;;1.80;;
10882;SDS011;5494;51.796;10.952;2023-04-25T14:18:58;3.53;;;1.37;;
10882;SDS011;5494;51.796;10.952;2023-04-25T14:21:26;6.90;;;1.80;;
10882;SDS011;5494;51.796;10.952;2023-04-25T14:23:54;5.67;;;1.90;;
10882;SDS011;5494;51.796;10.952;2023-04-25T14:26:22;4.03;;;1.80;;
10882;SDS011;5494;51.796;10.952;2023-04-25T14:28:50;6.87;;;1.77;;
10882;SDS011;5494;51.796;10.952;2023-04-25T14:31:18;5.13;;;1.63;;
10882;SDS011;5494;51.796;10.952;2023-04-25T14:33:48;2.77;;;1.30;;
10882;SDS011;5494;51.796;10.952;2023-04-25T14:36:17;3.23;;;1.70;;
10882;SDS011;5494;51.796;10.952;2023-04-25T14:38:46;3.37;;;1.43;;
10882;SDS011;5494;51.796;10.952;2023-04-25T14:41:14;5.17;;;1.57;;
10882;SDS011;5494;51.796;10.952;2023-04-25T14:43:42;4.60;;;1.50;;
10882;SDS011;5494;51.796;10.952;2023-04-25T14:46:11;3.87;;;1.33;;
10882;SDS011;5494;51.796;10.952;2023-04-25T14:48:39;5.10;;;1.80;;
10882;SDS011;5494;51.796;10.952;2023-04-25T14:51:09;3.47;;;1.27;;
10882;SDS011;5494;51.796;10.952;2023-04-25T14:53:37;1.97;;;1.30;;
10882;SDS011;5494;51.796;10.952;2023-04-25T14:56:05;5.87;;;1.50;;
10882;SDS011;5494;51.796;10.952;2023-04-25T14:58:33;5.80;;;1.90;;
10882;SDS011;5494;51.796;10.952;2023-04-25T15:01:02;2.57;;;1.37;;
10882;SDS011;5494;51.796;10.952;2023-04-25T15:03:30;4.07;;;1.40;;
10882;SDS011;5494;51.796;10.952;2023-04-25T15:05:59;3.97;;;1.63;;
10882;SDS011;5494;51.796;10.952;2023-04-25T15:08:29;4.30;;;1.57;;
10882;SDS011;5494;51.796;10.952;2023-04-25T15:10:57;5.13;;;1.97;;
10882;SDS011;5494;51.796;10.952;2023-04-25T15:13:26;4.60;;;1.53;;
10882;SDS011;5494;51.796;10.952;2023-04-25T15:15:54;3.90;;;1.70;;
10882;SDS011;5494;51.796;10.952;2023-04-25T15:18:22;2.80;;;1.70;;
10882;SDS011;5494;51.796;10.952;2023-04-25T15:20:51;4.20;;;1.90;;
10882;SDS011;5494;51.796;10.952;2023-04-25T15:23:20;2.63;;;1.40;;
10882;SDS011;5494;51.796;10.952;2023-04-25T15:25:50;2.73;;;1.47;;
10882;SDS011;5494;51.796;10.952;2023-04-25T15:28:19;3.93;;;1.60;;
10882;SDS011;5494;51.796;10.952;2023-04-25T15:30:47;4.50;;;1.80;;
10882;SDS011;5494;51.796;10.952;2023-04-25T15:33:16;2.80;;;1.33;;
10882;SDS011;5494;51.796;10.952;2023-04-25T15:35:44;4.57;;;1.60;;
10882;SDS011;5494;51.796;10.952;2023-04-25T15:38:13;3.63;;;1.50;;
10882;SDS011;5494;51.796;10.952;2023-04-25T15:40:41;3.10;;;1.40;;
10882;SDS011;5494;51.796;10.952;2023-04-25T15:43:10;2.03;;;1.37;;
10882;SDS011;5494;51.796;10.952;2023-04-25T15:45:41;4.40;;;1.77;;
10882;SDS011;5494;51.796;10.952;2023-04-25T15:48:10;2.50;;;1.50;;
10882;SDS011;5494;51.796;10.952;2023-04-25T15:50:39;5.03;;;2.23;;
10882;SDS011;5494;51.796;10.952;2023-04-25T15:53:08;4.40;;;1.93;;
10882;SDS011;5494;51.796;10.952;2023-04-25T15:55:36;2.90;;;1.60;;
10882;SDS011;5494;51.796;10.952;2023-04-25T15:58:04;5.20;;;1.60;;
10882;SDS011;5494;51.796;10.952;2023-04-25T16:00:35;3.40;;;1.30;;
10882;SDS011;5494;51.796;10.952;2023-04-25T16:03:05;3.73;;;1.43;;
10882;SDS011;5494;51.796;10.952;2023-04-25T16:05:34;5.00;;;1.80;;
10882;SDS011;5494;51.796;10.952;2023-04-25T16:08:02;3.10;;;1.60;;